Time;durP1;ratioP1;P1;durP2;ratioP2;P2;SDS_P1;SDS_P2;PMS_P1;PMS_P2;Temp;Humidity;BMP_temperature;BMP_pressure;BME280_temperature;BME280_humidity;BME280_pressure;Samples;Min_cycle;Max_cycle;Signal;HPM_P1;HPM_P2
2023/08/21 00:01:31;;;;;;;13.05;10.57;;;;;;;27.26;56.84;99952.69;4331093;33;33750;-73
2023/08/21 00:03:59;;;;;;;19.70;10.25;;;;;;;27.15;57.21;99951.44;4331315;33;35306;-73
2023/08/21 00:06:27;;;;;;;12.88;9.02;;;;;;;27.03;57.65;99945.78;4321677;33;33459;-73
2023/08/21 00:08:54;;;;;;;19.77;9.90;;;;;;;26.98;57.83;99956.56;4319445;33;32527;-73
2023/08/21 00:11:22;;;;;;;12.68;8.93;;;;;;;26.97;57.84;99945.75;4331927;33;33747;-73
2023/08/21 00:13:50;;;;;;;12.20;8.55;;;;;;;26.74;58.41;99954.50;4317391;33;34708;-73
2023/08/21 00:16:17;;;;;;;14.93;10.07;;;;;;;26.80;58.15;99959.12;4326963;33;35009;-73
2023/08/21 00:18:46;;;;;;;15.35;9.18;;;;;;;26.65;58.37;99956.66;4329247;33;35019;-73
2023/08/21 00:21:13;;;;;;;14.27;10.45;;;;;;;26.80;57.92;99959.97;4325970;33;32412;-74
2023/08/21 00:23:41;;;;;;;12.70;9.95;;;;;;;26.81;57.69;99956.19;4325380;33;34778;-73
2023/08/21 00:26:09;;;;;;;12.52;9.48;;;;;;;26.74;57.77;99951.75;4329573;33;34908;-72
2023/08/21 00:28:36;;;;;;;17.40;9.63;;;;;;;26.77;57.71;99957.66;4330399;33;33286;-73
2023/08/21 00:31:05;;;;;;;13.65;9.23;;;;;;;26.71;57.86;99953.91;4330076;33;32667;-73
2023/08/21 00:33:33;;;;;;;14.05;10.10;;;;;;;26.80;57.61;99948.16;4328990;33;33947;-73
2023/08/21 00:36:01;;;;;;;13.20;9.35;;;;;;;26.81;57.66;99958.94;4327172;33;33626;-73
2023/08/21 00:38:28;;;;;;;14.27;10.10;;;;;;;26.82;57.65;99948.78;4330712;33;33533;-73
2023/08/21 00:40:57;;;;;;;9.60;7.65;;;;;;;26.70;57.80;99954.94;4328960;33;33932;-73
2023/08/21 00:43:24;;;;;;;13.35;9.77;;;;;;;26.73;57.61;99958.31;4329934;33;33778;-73
2023/08/21 00:45:52;;;;;;;13.43;9.68;;;;;;;26.74;57.48;99951.75;4329529;33;33805;-73
2023/08/21 00:48:20;;;;;;;11.65;8.13;;;;;;;26.74;57.52;99968.22;4317323;33;33523;-73
2023/08/21 00:50:48;;;;;;;11.55;8.73;;;;;;;26.75;57.60;99964.44;4327302;33;32559;-73
2023/08/21 00:53:16;;;;;;;14.68;10.23;;;;;;;26.75;57.50;99962.53;4329226;33;33868;-74
2023/08/21 00:55:44;;;;;;;18.92;8.13;;;;;;;26.77;57.35;99968.63;4330664;33;34099;-74
2023/08/21 00:58:12;;;;;;;14.50;8.00;;;;;;;26.83;57.12;99956.78;4329419;33;33175;-74
2023/08/21 01:00:45;;;;;;;12.00;8.32;;;;;;;26.81;57.25;99967.19;4327047;33;35071;-74
2023/08/21 01:03:13;;;;;;;16.77;13.10;;;;;;;26.80;57.38;99959.12;4328010;33;32986;-73
2023/08/21 01:05:42;;;;;;;12.88;8.32;;;;;;;26.73;57.69;99958.31;4327415;33;33806;-73
2023/08/21 01:08:21;;;;;;;15.23;9.27;;;;;;;26.83;57.53;99958.69;4328807;33;33231;-73
2023/08/21 01:10:56;;;;;;;12.57;8.40;;;;;;;26.87;57.41;99960.81;4326822;33;33917;-74
2023/08/21 01:13:51;;;;;;;13.43;9.23;;;;;;;26.75;57.76;99959.78;4327805;33;33805;-72
2023/08/21 01:16:21;;;;;;;14.65;8.18;;;;;;;26.73;57.96;99966.56;4325314;33;34855;-72
2023/08/21 01:18:49;;;;;;;15.18;10.55;;;;;;;26.70;58.03;99971.41;4327011;33;34267;-73
2023/08/21 01:21:17;;;;;;;11.77;8.48;;;;;;;26.67;58.20;99971.00;4329731;33;33631;-73
2023/08/21 01:23:45;;;;;;;11.25;8.60;;;;;;;26.60;58.35;99970.16;4329435;33;34060;-73
2023/08/21 01:26:13;;;;;;;13.90;10.63;;;;;;;26.66;58.06;99969.31;4317688;33;33877;-72
2023/08/21 01:28:40;;;;;;;13.70;10.45;;;;;;;26.58;58.11;99970.41;4326829;33;34330;-73
2023/08/21 01:31:12;;;;;;;12.98;10.95;;;;;;;26.42;58.53;99966.16;4316602;33;35072;-72
2023/08/21 01:33:49;;;;;;;13.35;11.48;;;;;;;26.47;58.38;99971.00;4322930;33;34251;-72
2023/08/21 01:36:17;;;;;;;13.77;10.05;;;;;;;26.46;58.46;99956.44;4328504;33;34454;-71
2023/08/21 01:38:46;;;;;;;13.90;11.18;;;;;;;26.41;58.63;99974.59;4328020;33;32938;-73
2023/08/21 01:41:14;;;;;;;15.82;10.85;;;;;;;26.42;58.56;99976.25;4315410;33;33509;-76
2023/08/21 01:43:42;;;;;;;16.08;13.85;;;;;;;26.45;58.67;99975.84;4311665;33;33871;-75
2023/08/21 01:46:10;;;;;;;14.38;8.65;;;;;;;26.43;58.68;99980.72;4320281;33;33493;-75
2023/08/21 01:48:37;;;;;;;13.13;7.45;;;;;;;26.51;58.25;99976.94;4302455;33;33834;-72
2023/08/21 01:51:05;;;;;;;11.60;9.30;;;;;;;26.51;58.11;99974.19;4316373;33;33544;-72
2023/08/21 01:53:33;;;;;;;13.60;9.68;;;;;;;26.44;58.15;99982.41;4316649;33;34390;-71
2023/08/21 01:56:01;;;;;;;12.60;8.88;;;;;;;26.48;57.84;99984.56;4315501;33;34501;-73
2023/08/21 01:58:29;;;;;;;11.40;8.07;;;;;;;26.46;57.84;99986.63;4325597;33;33545;-71
2023/08/21 02:00:56;;;;;;;11.40;9.13;;;;;;;26.46;57.77;99989.38;4322123;33;34766;-72
2023/08/21 02:03:27;;;;;;;17.55;12.13;;;;;;;26.39;57.83;99990.44;4314824;33;33677;-72
2023/08/21 02:05:57;;;;;;;12.02;7.55;;;;;;;26.15;58.48;99990.00;4320450;33;34497;-72
2023/08/21 02:08:34;;;;;;;11.38;8.15;;;;;;;26.19;58.26;99987.69;4320225;33;34168;-73
2023/08/21 02:11:02;;;;;;;11.57;10.05;;;;;;;26.19;58.26;99993.16;4316444;33;32109;-73
2023/08/21 02:13:30;;;;;;;14.10;8.25;;;;;;;26.12;58.48;99995.91;4322489;33;34279;-73
2023/08/21 02:15:57;;;;;;;18.23;8.68;;;;;;;26.11;58.42;99994.22;4328917;33;34761;-73
2023/08/21 02:18:26;;;;;;;16.10;10.40;;;;;;;26.13;58.41;99989.38;4331053;33;32955;-73
2023/08/21 02:20:53;;;;;;;17.42;10.63;;;;;;;26.12;58.28;99989.56;4329412;33;34084;-74
2023/08/21 02:23:21;;;;;;;12.70;9.50;;;;;;;26.16;58.16;99979.88;4327437;33;33860;-74
2023/08/21 02:25:49;;;;;;;14.55;9.55;;;;;;;26.16;58.28;99990.84;4328590;33;33579;-73
2023/08/21 02:28:17;;;;;;;12.13;8.35;;;;;;;26.14;58.34;99982.00;4330244;33;33042;-72
2023/08/21 02:30:47;;;;;;;13.52;8.57;;;;;;;26.08;58.52;99978.19;4329447;33;33563;-72
2023/08/21 02:33:15;;;;;;;15.07;8.68;;;;;;;26.07;58.45;99979.25;4321887;33;33981;-72
2023/08/21 02:35:43;;;;;;;12.13;8.38;;;;;;;26.06;58.59;99979.44;4326147;33;32189;-72
2023/08/21 02:38:11;;;;;;;12.10;7.43;;;;;;;26.07;58.55;99981.13;4327189;33;32035;-71
2023/08/21 02:40:39;;;;;;;11.15;6.72;;;;;;;26.09;58.41;99985.34;4327747;33;33567;-77
2023/08/21 02:43:06;;;;;;;12.35;8.02;;;;;;;25.98;58.58;99983.25;4329713;33;33591;-77
2023/08/21 02:45:34;;;;;;;12.65;8.27;;;;;;;25.77;59.22;99984.22;4330592;33;33684;-77
2023/08/21 02:48:02;;;;;;;14.23;9.80;;;;;;;25.68;59.41;99986.34;4324586;33;33494;-76
2023/08/21 02:50:29;;;;;;;15.77;11.95;;;;;;;25.67;59.54;99972.81;4330012;33;33736;-77
2023/08/21 02:52:58;;;;;;;11.23;7.93;;;;;;;25.62;59.72;99984.41;4295928;33;34228;-77
2023/08/21 02:55:26;;;;;;;13.77;8.05;;;;;;;25.74;59.44;99982.72;4295857;33;33610;-78
2023/08/21 02:57:54;;;;;;;11.45;8.25;;;;;;;25.77;59.48;99984.22;4289041;33;32872;-77
2023/08/21 03:03:24;;;;;;;12.18;7.50;;;;;;;25.83;59.41;99977.94;4321567;33;20697;-78
2023/08/21 03:05:52;;;;;;;15.93;10.40;;;;;;;25.89;58.97;99971.63;4323475;33;33722;-78
2023/08/21 03:08:20;;;;;;;12.20;8.18;;;;;;;25.89;58.98;99977.09;4326410;33;33338;-78
2023/08/21 03:10:47;;;;;;;13.70;10.90;;;;;;;25.86;59.08;99979.44;4327056;33;38819;-78
2023/08/21 03:13:15;;;;;;;13.73;9.57;;;;;;;25.84;58.98;99979.63;4319372;33;33860;-77
2023/08/21 03:15:46;;;;;;;13.73;7.60;;;;;;;25.81;59.01;99970.97;4324718;33;33738;-78
2023/08/21 03:18:14;;;;;;;13.45;9.07;;;;;;;25.81;58.76;99971.84;4323590;33;34271;-79
2023/08/21 03:20:45;;;;;;;12.73;8.35;;;;;;;25.72;59.09;99976.63;4328249;33;33401;-78
2023/08/21 03:23:14;;;;;;;10.07;7.62;;;;;;;25.52;59.55;99967.50;4331752;32;34122;-77
2023/08/21 03:25:42;;;;;;;10.60;7.93;;;;;;;25.64;59.21;99985.03;4345765;32;33516;-78
2023/08/21 03:28:09;;;;;;;14.50;8.50;;;;;;;25.58;59.47;99988.59;4343801;32;34275;-76
2023/08/21 03:30:40;;;;;;;11.23;8.95;;;;;;;25.57;59.53;99986.91;4346790;32;34763;-76
2023/08/21 03:33:08;;;;;;;11.10;8.98;;;;;;;25.60;59.51;99986.50;4344162;32;33482;-77
2023/08/21 03:35:36;;;;;;;12.52;8.15;;;;;;;25.63;59.34;99985.25;4343101;32;34808;-75
2023/08/21 03:38:04;;;;;;;14.70;9.38;;;;;;;25.68;59.22;99985.47;4339123;33;33330;-76
2023/08/21 03:40:33;;;;;;;14.20;7.55;;;;;;;25.67;59.38;99987.38;4338677;32;33876;-75
2023/08/21 03:43:01;;;;;;;13.43;9.48;;;;;;;25.70;59.17;99992.44;4333023;32;34158;-75
2023/08/21 03:45:28;;;;;;;13.85;8.45;;;;;;;25.67;59.24;99989.25;4344850;32;34882;-75
2023/08/21 03:47:56;;;;;;;13.18;8.25;;;;;;;25.69;59.22;99990.75;4340324;32;33148;-75
2023/08/21 03:50:24;;;;;;;14.82;8.48;;;;;;;25.48;59.64;99990.88;4337793;33;33916;-75
2023/08/21 03:52:52;;;;;;;13.73;8.93;;;;;;;25.22;60.33;99989.75;4343346;32;33978;-75
2023/08/21 03:55:20;;;;;;;12.63;9.02;;;;;;;25.41;59.81;99984.56;4337796;32;32444;-76
2023/08/21 03:57:48;;;;;;;10.90;7.68;;;;;;;25.41;60.00;99985.41;4344885;32;33244;-75
2023/08/21 04:00:16;;;;;;;12.05;8.32;;;;;;;25.49;59.73;99989.84;4340897;32;34086;-75
2023/08/21 04:02:43;;;;;;;12.37;8.50;;;;;;;25.56;59.39;99987.97;4353844;32;33703;-76
2023/08/21 04:05:11;;;;;;;18.92;8.82;;;;;;;25.63;59.31;99980.63;4352505;32;34008;-76
2023/08/21 04:07:39;;;;;;;13.18;7.10;;;;;;;25.63;59.14;99985.25;4360599;32;32964;-76
2023/08/21 04:10:07;;;;;;;10.40;7.20;;;;;;;25.55;59.40;99983.53;4351712;32;33774;-76
2023/08/21 04:12:35;;;;;;;11.15;6.82;;;;;;;25.58;59.38;99985.84;4358928;32;33871;-76
2023/08/21 04:15:04;;;;;;;12.50;7.72;;;;;;;25.68;59.22;99988.19;4357772;32;33818;-75
2023/08/21 04:17:32;;;;;;;12.40;8.13;;;;;;;25.62;59.21;99987.16;4349473;32;33711;-76
2023/08/21 04:20:00;;;;;;;10.60;7.62;;;;;;;25.67;58.99;99989.25;4361619;32;33063;-76
2023/08/21 04:22:27;;;;;;;12.10;7.65;;;;;;;25.73;58.81;99983.78;4359398;32;34310;-74
2023/08/21 04:24:55;;;;;;;12.15;8.13;;;;;;;25.77;59.00;99990.53;4354420;32;34283;-74
2023/08/21 04:27:23;;;;;;;11.07;8.38;;;;;;;25.82;58.95;99989.97;4361243;32;33741;-74
2023/08/21 04:29:53;;;;;;;14.27;7.62;;;;;;;25.91;58.94;99994.22;4359240;32;33906;-73
2023/08/21 04:32:21;;;;;;;13.00;8.40;;;;;;;26.06;58.66;99996.75;4359450;32;35330;-73
2023/08/21 04:34:50;;;;;;;14.25;9.50;;;;;;;26.09;58.44;99995.47;4355747;32;33197;-72
2023/08/21 04:37:17;;;;;;;11.85;9.13;;;;;;;26.09;58.42;100004.53;4360023;32;33874;-72
2023/08/21 04:39:46;;;;;;;12.30;8.88;;;;;;;26.15;58.55;100003.72;4355638;32;33655;-72
2023/08/21 04:42:14;;;;;;;11.43;8.27;;;;;;;26.29;58.43;100006.47;4355595;32;34787;-73
2023/08/21 04:44:42;;;;;;;11.18;9.13;;;;;;;26.48;57.83;100002.91;4358752;32;35007;-70
2023/08/21 04:47:27;;;;;;;16.87;11.15;;;;;;;26.51;57.64;100004.38;4356918;32;31962;-75
2023/08/21 04:49:55;;;;;;;10.05;6.70;;;;;;;26.52;57.49;100004.19;4348733;32;33590;-75
2023/08/21 04:52:24;;;;;;;13.52;7.57;;;;;;;26.33;58.24;100005.84;4354539;32;33680;-75
2023/08/21 04:54:53;;;;;;;13.20;7.50;;;;;;;26.41;58.01;100013.00;4355208;32;33785;-74
2023/08/21 04:57:21;;;;;;;11.68;8.02;;;;;;;26.43;58.07;100010.91;4349843;32;34193;-74
2023/08/21 04:59:49;;;;;;;15.00;9.75;;;;;;;26.36;58.48;100018.31;4359610;32;33798;-74
2023/08/21 05:02:17;;;;;;;13.35;9.70;;;;;;;26.44;58.42;100015.31;4350919;32;35196;-75
2023/08/21 05:04:45;;;;;;;11.52;8.20;;;;;;;26.55;58.29;100017.47;4358912;32;33420;-74
2023/08/21 05:07:13;;;;;;;13.18;8.23;;;;;;;26.57;58.34;100015.34;4360343;32;33334;-74
2023/08/21 05:09:41;;;;;;;14.13;8.00;;;;;;;26.62;57.99;100021.06;4359954;32;33954;-74
2023/08/21 05:12:09;;;;;;;11.23;7.45;;;;;;;26.79;57.99;100023.34;4344218;32;34117;-74
2023/08/21 05:14:37;;;;;;;12.10;8.45;;;;;;;26.91;57.48;100022.50;4360054;32;34113;-73
2023/08/21 05:17:04;;;;;;;14.13;8.30;;;;;;;27.00;57.42;100025.84;4359954;32;33501;-73
2023/08/21 05:19:32;;;;;;;11.18;7.93;;;;;;;27.12;57.30;100032.34;4359515;32;33368;-74
2023/08/21 05:22:00;;;;;;;11.80;8.23;;;;;;;27.26;56.97;100021.38;4356824;32;34135;-74
2023/08/21 05:24:29;;;;;;;10.85;6.95;;;;;;;27.36;56.54;100021.75;4358140;32;33038;-74
2023/08/21 05:26:58;;;;;;;15.70;8.32;;;;;;;27.69;55.47;100023.50;4348317;32;34456;-73
2023/08/21 05:29:27;;;;;;;12.40;9.95;;;;;;;27.98;54.81;100022.91;4354643;32;33875;-74
2023/08/21 05:31:55;;;;;;;13.60;9.55;;;;;;;28.69;52.60;100030.00;4354789;32;35145;-73
2023/08/21 05:34:25;;;;;;;11.57;9.48;;;;;;;29.28;51.00;100036.00;4359429;32;33705;-73
2023/08/21 05:36:54;;;;;;;15.32;8.98;;;;;;;30.06;48.82;100020.53;4353004;32;32981;-72
2023/08/21 05:39:22;;;;;;;10.80;9.70;;;;;;;30.17;48.65;100026.06;4355903;32;33861;-73
2023/08/21 05:41:50;;;;;;;10.88;8.80;;;;;;;29.85;49.64;100033.78;4354504;32;33739;-77
2023/08/21 05:44:19;;;;;;;12.50;8.63;;;;;;;30.61;48.22;100037.72;4359814;32;34063;-73
2023/08/21 05:46:47;;;;;;;10.32;7.80;;;;;;;31.65;45.81;100039.78;4358265;32;34554;-73
2023/08/21 05:49:15;;;;;;;10.68;7.97;;;;;;;32.58;43.95;100034.88;4357739;32;33705;-73
2023/08/21 05:51:43;;;;;;;12.13;9.18;;;;;;;32.81;42.93;100035.78;4359807;32;33811;-73
2023/08/21 05:54:10;;;;;;;11.65;9.10;;;;;;;32.47;43.47;100044.13;4360082;32;33905;-73
2023/08/21 05:56:38;;;;;;;10.68;8.25;;;;;;;32.53;43.34;100042.28;4350505;32;33291;-73
2023/08/21 05:59:10;;;;;;;12.30;9.15;;;;;;;32.20;43.89;100049.41;4353778;32;35074;-73
2023/08/21 06:01:38;;;;;;;12.85;10.55;;;;;;;31.67;45.21;100045.09;4354773;32;34231;-73
2023/08/21 06:04:06;;;;;;;11.30;10.07;;;;;;;31.36;46.00;100049.12;4359520;32;33669;-73
2023/08/21 06:06:34;;;;;;;11.80;9.60;;;;;;;31.06;46.28;100045.41;4355664;32;32372;-73
2023/08/21 06:09:01;;;;;;;11.43;8.68;;;;;;;30.88;47.29;100047.47;4355523;32;34155;-73
2023/08/21 06:11:29;;;;;;;11.23;8.32;;;;;;;30.77;47.03;100046.41;4359687;32;33585;-73
2023/08/21 06:13:57;;;;;;;13.10;8.52;;;;;;;30.57;47.20;100044.81;4360743;32;33765;-73
2023/08/21 06:16:25;;;;;;;10.38;7.57;;;;;;;30.49;48.00;100042.38;4353195;32;33978;-73
2023/08/21 06:18:53;;;;;;;10.38;8.18;;;;;;;30.40;48.41;100046.56;4359070;32;33597;-73
2023/08/21 06:21:20;;;;;;;12.77;9.40;;;;;;;30.42;48.70;100046.34;4358593;32;35859;-73
2023/08/21 06:23:48;;;;;;;12.02;10.57;;;;;;;30.35;49.18;100039.00;4355020;32;34818;-73
2023/08/21 06:26:16;;;;;;;11.27;7.80;;;;;;;30.32;49.53;100044.16;4358111;32;34457;-73
2023/08/21 06:28:43;;;;;;;16.27;9.57;;;;;;;30.21;49.04;100048.59;4354337;32;33888;-73
2023/08/21 06:31:11;;;;;;;14.30;10.70;;;;;;;30.26;49.74;100047.88;4349871;32;33578;-73
2023/08/21 06:33:40;;;;;;;11.15;9.25;;;;;;;30.21;50.23;100047.72;4356446;32;33196;-73
2023/08/21 06:36:08;;;;;;;12.37;8.00;;;;;;;30.18;49.88;100043.50;4344948;32;33374;-74
2023/08/21 06:38:35;;;;;;;11.35;9.43;;;;;;;30.24;49.53;100047.25;4356041;32;34716;-73
2023/08/21 06:41:04;;;;;;;13.95;9.32;;;;;;;30.32;49.69;100047.75;4352578;32;33964;-73
2023/08/21 06:43:36;;;;;;;12.30;9.85;;;;;;;30.36;49.55;100053.66;4363436;32;34000;-72
2023/08/21 06:46:04;;;;;;;12.20;9.48;;;;;;;30.63;48.82;100054.91;4360604;32;34300;-73
2023/08/21 06:48:32;;;;;;;11.45;8.70;;;;;;;30.64;48.07;100055.72;4357696;32;35075;-73
2023/08/21 06:50:59;;;;;;;11.68;10.05;;;;;;;30.55;48.70;100052.47;4359671;32;35501;-73
2023/08/21 06:53:28;;;;;;;10.20;8.50;;;;;;;30.50;50.27;100052.38;4355644;32;34250;-73
2023/08/21 06:55:56;;;;;;;12.75;9.25;;;;;;;30.51;48.81;100059.56;4359157;32;34896;-73
2023/08/21 06:58:23;;;;;;;12.93;11.10;;;;;;;30.52;49.81;100054.88;4357203;32;33955;-73
2023/08/21 07:00:53;;;;;;;13.18;9.40;;;;;;;30.45;50.45;100046.69;4357674;32;35240;-73
2023/08/21 07:03:21;;;;;;;12.07;10.15;;;;;;;30.46;49.49;100053.06;4356009;32;33929;-73
2023/08/21 07:05:59;;;;;;;11.50;9.95;;;;;;;30.73;48.92;100046.00;4355445;32;33546;-73
2023/08/21 07:08:27;;;;;;;12.00;10.77;;;;;;;30.70;47.30;100053.94;4358232;32;34740;-74
2023/08/21 07:10:55;;;;;;;11.32;9.98;;;;;;;30.67;47.89;100046.97;4355207;32;34077;-73
2023/08/21 07:13:22;;;;;;;11.23;9.57;;;;;;;30.79;48.40;100050.63;4359800;32;33719;-74
2023/08/21 07:15:53;;;;;;;11.68;9.60;;;;;;;30.69;46.61;100046.72;4362747;32;33194;-75
2023/08/21 07:18:20;;;;;;;10.68;9.35;;;;;;;30.70;46.76;100048.41;4359287;32;35599;-74
2023/08/21 07:20:52;;;;;;;12.75;10.48;;;;;;;30.72;47.03;100052.59;4361529;32;35328;-74
2023/08/21 07:23:19;;;;;;;12.75;9.40;;;;;;;30.67;47.34;100041.44;4359713;32;33679;-75
2023/08/21 07:25:47;;;;;;;15.25;9.25;;;;;;;30.76;46.98;100045.53;4361129;32;33481;-73
2023/08/21 07:28:15;;;;;;;13.93;9.73;;;;;;;30.62;46.93;100041.31;4350879;32;33854;-74
2023/08/21 07:30:43;;;;;;;13.43;10.07;;;;;;;30.79;46.63;100047.84;4357035;32;33900;-73
2023/08/21 07:33:11;;;;;;;12.32;9.77;;;;;;;30.66;47.93;100045.28;4360952;32;33607;-73
2023/08/21 07:35:38;;;;;;;16.60;11.07;;;;;;;30.70;47.56;100051.19;4362128;32;33225;-73
2023/08/21 07:38:06;;;;;;;11.98;10.68;;;;;;;30.54;48.00;100044.44;4355439;32;34761;-73
2023/08/21 07:40:34;;;;;;;11.85;10.32;;;;;;;30.66;48.04;100048.06;4360889;32;35106;-73
2023/08/21 07:43:01;;;;;;;13.23;10.38;;;;;;;30.96;48.65;100049.88;4371359;32;34175;-73
2023/08/21 07:45:29;;;;;;;12.80;10.52;;;;;;;31.15;48.54;100065.25;4377516;32;33174;-74
2023/08/21 07:47:57;;;;;;;11.20;9.93;;;;;;;31.23;46.60;100055.72;4356901;32;35007;-73
2023/08/21 07:50:40;;;;;;;13.73;9.45;;;;;;;31.22;47.27;100052.12;4359754;32;35053;-73
2023/08/21 07:53:08;;;;;;;12.05;9.82;;;;;;;31.47;46.48;100054.66;4359397;32;34594;-73
2023/08/21 07:55:35;;;;;;;10.82;9.60;;;;;;;31.23;46.86;100055.72;4361432;32;33319;-73
2023/08/21 07:58:04;;;;;;;11.85;10.05;;;;;;;31.42;45.96;100057.28;4362062;32;33864;-73
2023/08/21 08:00:32;;;;;;;11.20;9.85;;;;;;;31.66;46.25;100062.78;4360289;32;34221;-73
2023/08/21 08:03:00;;;;;;;12.27;9.77;;;;;;;31.85;45.06;100063.44;4357503;32;34757;-72
2023/08/21 08:05:28;;;;;;;12.07;10.15;;;;;;;31.62;46.50;100059.66;4358748;32;32992;-74
2023/08/21 08:07:55;;;;;;;12.70;9.32;;;;;;;31.37;46.80;100057.19;4356867;32;35123;-73
2023/08/21 08:10:26;;;;;;;11.40;9.88;;;;;;;31.70;46.32;100052.88;4354849;32;33921;-74
2023/08/21 08:12:54;;;;;;;13.32;10.80;;;;;;;31.57;45.09;100059.56;4351976;32;32349;-75
2023/08/21 08:15:22;;;;;;;13.02;9.68;;;;;;;31.72;44.77;100059.88;4349381;32;35160;-73
2023/08/21 08:17:52;;;;;;;14.75;10.52;;;;;;;31.61;45.85;100057.97;4352346;32;34659;-74
2023/08/21 08:20:20;;;;;;;12.65;10.02;;;;;;;31.81;45.94;100054.75;4354995;32;33930;-73
2023/08/21 08:22:48;;;;;;;16.58;9.77;;;;;;;31.67;45.67;100048.69;4354032;32;33444;-73
2023/08/21 08:25:16;;;;;;;13.38;10.45;;;;;;;31.88;45.17;100057.37;4352737;32;33217;-72
2023/08/21 08:27:44;;;;;;;11.20;9.77;;;;;;;31.64;46.11;100063.00;4355996;32;33958;-73
2023/08/21 08:30:12;;;;;;;12.73;10.55;;;;;;;31.73;44.74;100061.53;4355619;32;33979;-72
2023/08/21 08:32:44;;;;;;;13.13;9.93;;;;;;;32.09;44.09;100047.56;4360740;32;34322;-72
2023/08/21 08:35:13;;;;;;;14.15;10.45;;;;;;;32.12;43.71;100056.22;4355240;32;33665;-74
2023/08/21 08:37:42;;;;;;;10.88;9.57;;;;;;;32.22;42.94;100050.84;4359264;32;33799;-74
2023/08/21 08:40:12;;;;;;;11.63;10.43;;;;;;;31.78;44.07;100055.25;4359229;32;33571;-74
2023/08/21 08:42:40;;;;;;;12.48;9.70;;;;;;;32.12;43.02;100061.75;4357567;32;34263;-74
2023/08/21 08:45:08;;;;;;;12.60;10.38;;;;;;;31.77;42.71;100057.19;4360312;32;33168;-73
2023/08/21 08:47:36;;;;;;;12.13;10.00;;;;;;;31.35;43.87;100058.53;4359918;32;33756;-73
2023/08/21 08:50:08;;;;;;;14.00;10.07;;;;;;;31.49;43.31;100062.69;4360694;32;34850;-74
2023/08/21 08:52:39;;;;;;;10.98;9.85;;;;;;;31.89;42.50;100067.41;4357709;32;33493;-72
2023/08/21 08:55:08;;;;;;;15.30;10.65;;;;;;;32.11;42.67;100068.38;4355788;32;34613;-73
2023/08/21 08:57:35;;;;;;;11.27;10.05;;;;;;;32.30;43.28;100073.72;4360146;32;33661;-72
2023/08/21 09:00:04;;;;;;;12.27;9.57;;;;;;;32.44;43.05;100073.16;4358918;32;33445;-74
2023/08/21 09:02:35;;;;;;;12.13;10.82;;;;;;;32.47;42.26;100063.50;4347680;32;33653;-74
2023/08/21 09:05:04;;;;;;;12.60;9.68;;;;;;;32.25;42.33;100066.97;4346758;32;33296;-73
2023/08/21 09:07:32;;;;;;;14.82;9.82;;;;;;;32.09;42.65;100064.19;4360281;32;33820;-72
2023/08/21 09:10:00;;;;;;;11.43;10.02;;;;;;;32.55;42.72;100067.78;4356448;32;34105;-73
2023/08/21 09:12:31;;;;;;;12.32;10.15;;;;;;;32.54;41.90;100066.94;4351708;32;34164;-72
2023/08/21 09:14:59;;;;;;;11.07;9.23;;;;;;;31.90;42.67;100069.91;4357319;32;34212;-73
2023/08/21 09:17:26;;;;;;;10.95;9.82;;;;;;;32.49;41.79;100064.13;4345513;32;34872;-77
2023/08/21 09:19:54;;;;;;;11.05;9.57;;;;;;;32.82;41.58;100076.28;4360150;32;33921;-77
2023/08/21 09:22:22;;;;;;;13.00;10.23;;;;;;;32.86;41.07;100063.59;4355728;32;33728;-73
2023/08/21 09:25:09;;;;;;;10.02;9.02;;;;;;;32.89;41.40;100061.13;4357854;32;34485;-74
2023/08/21 09:27:38;;;;;;;11.45;9.13;;;;;;;32.97;40.14;100065.47;4359272;32;35046;-73
2023/08/21 09:30:14;;;;;;;11.77;10.40;;;;;;;32.75;39.86;100054.28;4361796;32;33879;-74
2023/08/21 09:33:04;;;;;;;10.63;9.52;;;;;;;32.46;40.56;100048.81;4360888;32;34894;-73
2023/08/21 09:35:33;;;;;;;10.65;9.55;;;;;;;33.18;39.96;100049.94;4358684;32;34229;-73
2023/08/21 09:38:01;;;;;;;11.85;9.45;;;;;;;33.13;39.40;100047.09;4357198;32;34721;-75
2023/08/21 09:40:28;;;;;;;11.20;10.00;;;;;;;33.17;40.88;100048.28;4360336;32;33997;-74
2023/08/21 09:42:56;;;;;;;12.30;8.65;;;;;;;33.28;40.90;100043.69;4357428;32;34544;-72
2023/08/21 09:45:25;;;;;;;10.00;8.43;;;;;;;33.37;37.87;100037.44;4358136;32;33171;-73
2023/08/21 09:47:53;;;;;;;11.38;9.32;;;;;;;33.48;38.01;100045.88;4355699;32;33685;-74
2023/08/21 09:50:22;;;;;;;11.82;9.35;;;;;;;33.46;38.79;100040.59;4354276;32;34923;-73
2023/08/21 09:52:51;;;;;;;11.23;9.55;;;;;;;33.79;38.99;100038.78;4360267;32;34575;-73
2023/08/21 09:55:38;;;;;;;10.27;8.90;;;;;;;33.97;37.06;100034.84;4358100;32;34668;-74
2023/08/21 09:58:06;;;;;;;10.90;8.88;;;;;;;34.03;36.73;100042.12;4359212;32;33650;-73
2023/08/21 10:00:35;;;;;;;10.15;8.95;;;;;;;33.71;38.48;100045.66;4356844;32;34971;-73
2023/08/21 10:03:07;;;;;;;13.20;8.52;;;;;;;33.64;38.98;100033.91;4359023;32;32048;-73
2023/08/21 10:05:36;;;;;;;10.20;8.93;;;;;;;33.94;38.23;100029.81;4352771;32;32422;-73
2023/08/21 10:08:06;;;;;;;10.50;9.30;;;;;;;34.56;36.79;100031.25;4359906;32;35042;-74
2023/08/21 10:10:36;;;;;;;16.52;9.18;;;;;;;33.99;37.22;100025.12;4360453;32;34190;-73
2023/08/21 10:13:05;;;;;;;12.52;8.55;;;;;;;34.01;37.43;100014.63;4360500;32;34139;-74
2023/08/21 10:15:33;;;;;;;11.00;9.50;;;;;;;34.71;36.99;100023.87;4358314;32;33236;-74
2023/08/21 10:18:32;;;;;;;9.98;7.57;;;;;;;34.83;36.45;100018.09;4357292;32;33446;-72
2023/08/21 10:21:20;;;;;;;9.90;8.65;;;;;;;35.07;36.88;100021.31;4352199;32;34116;-73
2023/08/21 10:23:49;;;;;;;13.10;9.05;;;;;;;35.40;35.08;100024.81;4352571;32;34113;-72
2023/08/21 10:26:22;;;;;;;10.52;8.55;;;;;;;35.36;35.75;100018.12;4354332;32;33116;-72
2023/08/21 10:28:59;;;;;;;9.52;8.10;;;;;;;35.41;34.60;100012.56;4327781;33;33649;-72
2023/08/21 10:31:36;;;;;;;11.73;8.02;;;;;;;35.24;35.63;100012.78;4323201;33;35322;-75
2023/08/21 10:34:08;;;;;;;10.45;9.15;;;;;;;35.44;34.07;100018.44;4320335;33;33235;-76
2023/08/21 10:36:43;;;;;;;11.00;9.30;;;;;;;35.39;34.71;100012.84;4319993;33;33028;-75
2023/08/21 10:39:18;;;;;;;10.38;9.23;;;;;;;35.05;34.31;100015.19;4320414;33;33595;-75
2023/08/21 10:42:00;;;;;;;10.57;9.48;;;;;;;35.27;34.13;100011.41;4318974;33;34561;-75
2023/08/21 10:44:38;;;;;;;12.00;9.30;;;;;;;35.65;34.68;100007.41;4318236;33;33721;-74
2023/08/21 10:47:22;;;;;;;10.27;8.57;;;;;;;35.29;33.92;100004.47;4318189;33;33311;-75
2023/08/21 10:49:56;;;;;;;11.70;8.30;;;;;;;35.39;34.46;100007.28;4317687;33;33856;-75
2023/08/21 10:52:28;;;;;;;9.70;8.32;;;;;;;35.66;33.32;100001.53;4316483;33;33933;-75
2023/08/21 10:55:00;;;;;;;11.27;8.75;;;;;;;35.87;34.46;99996.88;4319155;33;33042;-76
2023/08/21 10:57:29;;;;;;;12.63;8.70;;;;;;;36.06;33.99;100002.78;4306964;33;33178;-77
2023/08/21 11:00:05;;;;;;;9.80;7.75;;;;;;;35.99;33.27;100007.75;4333922;32;33497;-76
2023/08/21 11:02:33;;;;;;;10.05;8.35;;;;;;;35.67;34.27;100005.19;4349957;32;35125;-75
2023/08/21 11:05:02;;;;;;;10.43;8.25;;;;;;;35.81;34.66;100003.53;4340978;32;34003;-75
2023/08/21 11:07:36;;;;;;;10.75;8.18;;;;;;;36.23;33.33;100004.47;4350853;32;33285;-75
2023/08/21 11:10:09;;;;;;;9.43;7.93;;;;;;;36.42;33.12;100004.75;4326737;32;33750;-75
2023/08/21 11:12:48;;;;;;;9.48;7.47;;;;;;;36.63;32.34;100000.84;4312771;33;34214;-73
2023/08/21 11:15:17;;;;;;;9.82;8.43;;;;;;;36.82;31.74;99996.34;4315273;33;36328;-74
2023/08/21 11:17:55;;;;;;;10.48;8.30;;;;;;;36.86;31.66;99993.84;4327841;33;34221;-73
2023/08/21 11:20:28;;;;;;;9.25;8.27;;;;;;;36.47;32.52;99993.56;4312987;33;33501;-74
2023/08/21 11:23:02;;;;;;;9.88;8.88;;;;;;;36.31;32.51;99993.59;4328001;33;34074;-75
2023/08/21 11:25:30;;;;;;;9.63;8.65;;;;;;;36.39;32.45;99981.88;4327849;33;33858;-75
2023/08/21 11:27:58;;;;;;;9.07;7.87;;;;;;;35.99;32.94;99987.41;4325267;33;31960;-75
2023/08/21 11:30:26;;;;;;;9.98;8.68;;;;;;;36.21;33.10;99989.97;4295060;33;34035;-75
2023/08/21 11:33:07;;;;;;;8.85;7.68;;;;;;;36.50;33.42;99985.53;4296810;33;33950;-75